createdAt,value
2017-08-24T00:00:08.714Z,6.30
2017-08-24T00:02:35.912Z,5.40
2017-08-24T00:05:03.117Z,5.70
2017-08-24T00:07:30.325Z,5.90
2017-08-24T00:09:57.546Z,5.00
2017-08-24T00:12:24.750Z,5.67
2017-08-24T00:14:51.967Z,5.80
2017-08-24T00:17:19.173Z,5.60
2017-08-24T00:19:47.323Z,5.30
2017-08-24T00:22:14.549Z,6.00
2017-08-24T00:24:41.756Z,6.10
2017-08-24T00:27:08.976Z,4.93
2017-08-24T00:29:36.181Z,5.80
2017-08-24T00:32:03.382Z,4.80
2017-08-24T00:34:30.586Z,4.80
2017-08-24T00:36:57.810Z,5.10
2017-08-24T00:39:25.017Z,5.20
2017-08-24T00:41:52.216Z,5.23
2017-08-24T00:44:20.348Z,5.30
2017-08-24T00:46:47.553Z,5.80
2017-08-24T00:49:14.779Z,5.80
2017-08-24T00:51:41.984Z,5.40
2017-08-24T00:54:09.181Z,5.93
2017-08-24T00:56:36.385Z,5.80
2017-08-24T00:59:03.589Z,5.87
2017-08-24T01:01:30.820Z,6.30
2017-08-24T01:03:58.025Z,5.73
2017-08-24T01:06:25.229Z,4.90
2017-08-24T01:08:52.716Z,5.53
2017-08-24T01:11:20.208Z,5.35
2017-08-24T01:13:49.402Z,5.83
2017-08-24T01:16:16.597Z,5.10
2017-08-24T01:18:43.801Z,5.10
2017-08-24T01:21:11.003Z,4.90
2017-08-24T01:23:38.209Z,5.00
2017-08-24T01:26:05.420Z,4.30
2017-08-24T01:28:32.620Z,4.50
2017-08-24T01:30:59.821Z,4.77
2017-08-24T01:33:27.021Z,5.07
2017-08-24T01:35:54.229Z,5.53
2017-08-24T01:38:21.449Z,4.63
2017-08-24T01:40:48.653Z,4.80
2017-08-24T01:43:15.861Z,5.10
2017-08-24T01:45:43.052Z,5.70
2017-08-24T01:48:10.251Z,4.77
2017-08-24T01:50:37.473Z,4.33
2017-08-24T01:53:04.696Z,4.20
2017-08-24T01:55:31.903Z,4.40
2017-08-24T01:57:59.104Z,4.40
2017-08-24T02:00:26.588Z,4.40
2017-08-24T02:02:53.804Z,4.17
2017-08-24T02:05:21.010Z,4.13
2017-08-24T02:07:48.497Z,4.20
2017-08-24T02:10:16.945Z,4.68
2017-08-24T02:12:44.148Z,4.10
2017-08-24T02:15:11.368Z,4.70
2017-08-24T02:17:38.578Z,4.50
2017-08-24T02:20:05.780Z,4.73
2017-08-24T02:22:32.981Z,4.07
2017-08-24T02:25:00.460Z,4.60
2017-08-24T02:27:27.682Z,4.37
2017-08-24T02:29:54.903Z,4.57
2017-08-24T02:32:22.101Z,3.50
2017-08-24T02:34:49.294Z,4.30
2017-08-24T02:37:16.502Z,4.20
2017-08-24T02:39:43.728Z,4.23
2017-08-24T02:42:10.930Z,4.27
2017-08-24T02:44:38.136Z,4.63
2017-08-24T02:47:05.632Z,3.85
2017-08-24T02:49:32.832Z,3.83
2017-08-24T02:52:01.996Z,3.93
2017-08-24T02:54:29.201Z,4.67
2017-08-24T02:56:56.406Z,3.90
2017-08-24T02:59:23.609Z,3.93
2017-08-24T03:01:50.812Z,4.13
2017-08-24T03:04:18.025Z,4.30
2017-08-24T03:06:45.229Z,4.20
2017-08-24T03:09:13.372Z,3.87
2017-08-24T03:11:40.577Z,4.00
2017-08-24T03:14:07.789Z,3.83
2017-08-24T03:16:35.042Z,4.40
2017-08-24T03:19:02.265Z,4.13
2017-08-24T03:21:29.478Z,4.30
2017-08-24T03:23:56.693Z,4.00
2017-08-24T03:26:23.893Z,4.37
2017-08-24T03:28:51.396Z,3.92
2017-08-24T03:31:18.605Z,3.93
2017-08-24T03:33:46.785Z,3.63
2017-08-24T03:36:14.587Z,4.07
2017-08-24T03:38:41.829Z,3.77
2017-08-24T03:41:09.061Z,3.77
2017-08-24T03:43:37.214Z,4.17
2017-08-24T03:46:04.420Z,4.63
2017-08-24T03:48:31.630Z,4.40
2017-08-24T03:50:58.849Z,4.17
2017-08-24T03:53:28.010Z,3.93
2017-08-24T03:55:55.217Z,3.70
2017-08-24T03:58:22.419Z,4.27
2017-08-24T04:00:49.629Z,3.93
2017-08-24T04:03:16.830Z,3.73
2017-08-24T04:05:44.097Z,4.10
2017-08-24T04:08:11.296Z,3.30
2017-08-24T04:10:38.500Z,3.47
2017-08-24T04:13:05.706Z,3.10
2017-08-24T04:15:32.900Z,3.60
2017-08-24T04:18:00.125Z,4.43
2017-08-24T04:20:27.325Z,3.80
2017-08-24T04:22:54.554Z,4.00
2017-08-24T04:25:21.757Z,3.73
2017-08-24T04:27:48.972Z,4.20
2017-08-24T04:30:16.196Z,4.33
2017-08-24T04:32:43.401Z,3.50
2017-08-24T04:35:10.604Z,4.10
2017-08-24T04:37:38.108Z,3.75
2017-08-24T04:40:06.257Z,4.13
2017-08-24T04:42:33.748Z,4.53
2017-08-24T04:45:00.955Z,3.20
2017-08-24T04:47:28.153Z,4.10
2017-08-24T04:49:55.352Z,3.33
2017-08-24T04:52:22.845Z,3.60
2017-08-24T04:54:50.046Z,3.70
2017-08-24T04:57:17.273Z,3.20
2017-08-24T04:59:44.472Z,3.70
2017-08-24T05:02:11.678Z,3.53
2017-08-24T05:04:38.890Z,3.50
2017-08-24T05:07:06.103Z,3.47
2017-08-24T05:09:33.333Z,3.70
2017-08-24T05:12:00.541Z,4.20
2017-08-24T05:14:27.749Z,4.60
2017-08-24T05:16:54.956Z,4.83
2017-08-24T05:19:22.152Z,4.13
2017-08-24T05:21:49.377Z,2.87
2017-08-24T05:24:17.535Z,3.50
2017-08-24T05:26:44.731Z,3.90
2017-08-24T05:29:11.931Z,4.00
2017-08-24T05:31:39.136Z,4.40
2017-08-24T05:34:06.356Z,4.27
2017-08-24T05:36:33.561Z,4.63
2017-08-24T05:39:00.770Z,5.27
2017-08-24T05:41:27.971Z,4.20
2017-08-24T05:43:55.168Z,3.90
2017-08-24T05:46:22.389Z,3.47
2017-08-24T05:48:49.612Z,4.00
2017-08-24T05:51:17.776Z,4.20
2017-08-24T05:53:44.976Z,3.20
2017-08-24T05:56:12.173Z,3.90
2017-08-24T05:58:39.392Z,3.87
2017-08-24T06:01:06.594Z,3.77
2017-08-24T06:03:33.793Z,4.20
2017-08-24T06:06:00.992Z,3.93
2017-08-24T06:08:28.355Z,3.90
2017-08-24T06:10:55.592Z,3.97
2017-08-24T06:13:22.796Z,3.53
2017-08-24T06:15:49.994Z,3.60
2017-08-24T06:18:17.194Z,4.80
2017-08-24T06:20:44.394Z,3.80
2017-08-24T06:23:11.620Z,5.10
2017-08-24T06:25:38.835Z,5.03
2017-08-24T06:28:06.030Z,3.60
2017-08-24T06:30:33.228Z,3.50
2017-08-24T06:33:00.433Z,3.60
2017-08-24T06:35:27.648Z,3.33
2017-08-24T06:37:54.845Z,3.10
2017-08-24T06:40:22.977Z,3.53
2017-08-24T06:42:50.184Z,4.10
2017-08-24T06:45:17.389Z,3.50
2017-08-24T06:47:44.619Z,3.47
2017-08-24T06:50:11.826Z,3.87
2017-08-24T06:52:39.022Z,3.20
2017-08-24T06:55:06.220Z,3.53
2017-08-24T06:57:33.436Z,3.43
2017-08-24T07:00:00.672Z,3.30
2017-08-24T07:02:27.881Z,3.40
2017-08-24T07:04:55.765Z,3.70
2017-08-24T07:07:22.970Z,3.30
2017-08-24T07:09:50.170Z,2.90
2017-08-24T07:12:17.389Z,3.43
2017-08-24T07:14:44.597Z,3.20
2017-08-24T07:17:11.797Z,3.60
2017-08-24T07:19:38.994Z,3.27
2017-08-24T07:22:06.200Z,3.17
2017-08-24T07:24:33.420Z,3.40
2017-08-24T07:27:00.636Z,2.90
2017-08-24T07:29:27.836Z,3.37
2017-08-24T07:31:55.987Z,2.77
2017-08-24T07:34:23.188Z,3.10
2017-08-24T07:36:50.412Z,3.43
2017-08-24T07:39:17.624Z,3.40
2017-08-24T07:41:45.764Z,3.17
2017-08-24T07:44:12.962Z,3.73
2017-08-24T07:46:41.093Z,3.97
2017-08-24T07:49:08.312Z,2.97
2017-08-24T07:51:35.511Z,2.70
2017-08-24T07:54:02.709Z,3.10
2017-08-24T07:56:29.913Z,3.20
2017-08-24T07:58:58.056Z,3.10
2017-08-24T08:01:25.280Z,2.70
2017-08-24T08:03:52.480Z,2.80
2017-08-24T08:06:19.681Z,2.60
2017-08-24T08:08:47.817Z,3.53
2017-08-24T08:11:15.023Z,3.30
2017-08-24T08:13:42.243Z,3.10
2017-08-24T08:16:09.444Z,3.10
2017-08-24T08:18:36.657Z,3.87
2017-08-24T08:21:03.856Z,2.90
2017-08-24T08:23:31.058Z,3.80
2017-08-24T08:25:58.275Z,2.90
2017-08-24T08:28:25.471Z,3.17
2017-08-24T08:30:52.668Z,4.03
2017-08-24T08:33:19.873Z,3.30
2017-08-24T08:35:47.077Z,3.50
2017-08-24T08:38:14.292Z,3.60
2017-08-24T08:40:41.519Z,3.70
2017-08-24T08:43:08.736Z,3.90
2017-08-24T08:45:35.936Z,3.70
2017-08-24T08:48:03.132Z,3.57
2017-08-24T08:50:32.320Z,4.40
2017-08-24T08:52:59.521Z,4.07
2017-08-24T08:55:26.730Z,3.30
2017-08-24T08:57:53.936Z,3.47
2017-08-24T09:00:21.141Z,4.00
2017-08-24T09:02:48.381Z,3.53
2017-08-24T09:05:15.594Z,4.20
2017-08-24T09:07:42.792Z,3.60
2017-08-24T09:10:10.000Z,3.77
2017-08-24T09:12:37.195Z,4.90
2017-08-24T09:15:04.425Z,3.37
2017-08-24T09:17:31.633Z,4.30
2017-08-24T09:19:58.828Z,3.83
2017-08-24T09:22:26.028Z,4.50
2017-08-24T09:24:53.229Z,3.80
2017-08-24T09:27:20.448Z,3.90
2017-08-24T09:29:47.652Z,4.50
2017-08-24T09:32:14.855Z,3.90
2017-08-24T09:34:42.062Z,4.10
2017-08-24T09:37:09.263Z,4.37
2017-08-24T09:39:36.509Z,4.20
2017-08-24T09:42:03.712Z,4.73
2017-08-24T09:44:30.916Z,4.47
2017-08-24T09:46:58.116Z,4.40
2017-08-24T09:49:26.266Z,4.70
2017-08-24T09:51:53.485Z,5.20
2017-08-24T09:54:20.693Z,4.63
2017-08-24T09:56:47.896Z,3.97
2017-08-24T09:59:15.100Z,4.70
2017-08-24T10:01:42.304Z,4.20
2017-08-24T10:04:09.533Z,4.70
2017-08-24T10:06:36.729Z,4.50
2017-08-24T10:09:03.486Z,4.70
2017-08-24T10:11:30.492Z,4.33
2017-08-24T10:13:57.513Z,5.27
2017-08-24T10:16:24.548Z,3.70
2017-08-24T10:18:52.528Z,5.03
2017-08-24T10:21:19.737Z,4.73
2017-08-24T10:23:47.917Z,4.23
2017-08-24T10:26:15.114Z,4.50
2017-08-24T10:28:44.273Z,4.33
2017-08-24T10:31:11.556Z,4.03
2017-08-24T10:33:38.936Z,4.57
2017-08-24T10:36:06.160Z,4.30
2017-08-24T10:38:33.361Z,4.70
2017-08-24T10:41:00.564Z,4.90
2017-08-24T10:43:27.769Z,4.50
2017-08-24T10:45:54.965Z,4.67
2017-08-24T10:48:22.176Z,4.50
2017-08-24T10:50:49.377Z,4.70
2017-08-24T10:53:16.584Z,4.73
2017-08-24T10:55:43.793Z,4.10
2017-08-24T10:58:10.993Z,4.53
2017-08-24T11:00:38.191Z,4.60
2017-08-24T11:03:05.417Z,5.07
2017-08-24T11:05:32.612Z,4.77
2017-08-24T11:07:59.852Z,4.20
2017-08-24T11:10:27.269Z,4.47
2017-08-24T11:12:54.469Z,5.00
2017-08-24T11:15:21.688Z,4.90
2017-08-24T11:17:48.888Z,4.47
2017-08-24T11:20:16.097Z,4.80
2017-08-24T11:22:43.294Z,4.73
2017-08-24T11:25:10.484Z,4.40
2017-08-24T11:27:37.700Z,4.93
2017-08-24T11:30:04.901Z,4.73
2017-08-24T11:32:32.161Z,4.67
2017-08-24T11:34:59.381Z,4.90
2017-08-24T11:37:26.584Z,5.80
2017-08-24T11:39:53.808Z,4.17
2017-08-24T11:42:21.009Z,4.40
2017-08-24T11:44:48.208Z,5.20
2017-08-24T11:47:15.412Z,4.17
2017-08-24T11:49:42.612Z,5.00
2017-08-24T11:52:09.828Z,4.20
2017-08-24T11:54:37.025Z,4.17
2017-08-24T11:57:04.233Z,4.70
2017-08-24T11:59:31.433Z,4.90
2017-08-24T12:01:58.628Z,4.30
2017-08-24T12:04:25.855Z,4.70
2017-08-24T12:06:53.056Z,4.17
2017-08-24T12:09:20.257Z,4.50
2017-08-24T12:11:47.452Z,4.63
2017-08-24T12:14:14.671Z,3.83
2017-08-24T12:16:41.922Z,3.80
2017-08-24T12:19:09.120Z,3.60
2017-08-24T12:21:36.320Z,3.80
2017-08-24T12:24:03.525Z,4.13
2017-08-24T12:26:30.735Z,4.13
2017-08-24T12:28:57.961Z,3.83
2017-08-24T12:31:25.161Z,3.90
2017-08-24T12:33:52.365Z,3.63
2017-08-24T12:36:19.568Z,3.90
2017-08-24T12:38:47.723Z,3.37
2017-08-24T12:41:14.944Z,3.50
2017-08-24T12:43:42.267Z,3.63
2017-08-24T12:46:09.700Z,4.23
2017-08-24T12:48:36.928Z,2.97
2017-08-24T12:51:04.144Z,3.70
2017-08-24T12:53:31.364Z,2.93
2017-08-24T12:55:58.567Z,2.90
2017-08-24T12:58:27.289Z,3.23
2017-08-24T13:00:54.494Z,2.57
2017-08-24T13:03:21.701Z,2.77
2017-08-24T13:05:48.925Z,2.77
2017-08-24T13:08:16.132Z,3.13
2017-08-24T13:10:43.341Z,3.30
2017-08-24T13:13:11.482Z,3.10
2017-08-24T13:15:38.676Z,3.10
2017-08-24T13:18:07.845Z,3.30
2017-08-24T13:20:35.048Z,2.80
2017-08-24T13:23:02.244Z,2.73
2017-08-24T13:25:29.444Z,2.73
2017-08-24T13:27:56.644Z,2.63
2017-08-24T13:30:25.435Z,2.90
2017-08-24T13:32:52.788Z,2.70
2017-08-24T13:35:19.999Z,2.83
2017-08-24T13:37:47.230Z,3.13
2017-08-24T13:40:14.445Z,3.00
2017-08-24T13:42:41.668Z,2.90
2017-08-24T13:45:08.875Z,2.90
2017-08-24T13:47:36.439Z,2.97
2017-08-24T13:50:03.639Z,2.80
2017-08-24T13:52:30.856Z,2.70
2017-08-24T13:54:58.087Z,2.87
2017-08-24T13:57:25.304Z,2.73
2017-08-24T13:59:52.516Z,3.97
2017-08-24T14:02:19.716Z,2.37
2017-08-24T14:04:46.929Z,2.37
2017-08-24T14:07:14.157Z,2.93
2017-08-24T14:09:41.365Z,2.80
2017-08-24T14:12:08.572Z,3.07
2017-08-24T14:14:36.741Z,3.00
2017-08-24T14:17:03.951Z,2.97
2017-08-24T14:19:31.177Z,2.30
2017-08-24T14:21:58.375Z,2.67
2017-08-24T14:24:25.633Z,2.63
2017-08-24T14:26:52.837Z,2.60
2017-08-24T14:29:20.040Z,3.20
2017-08-24T14:31:47.264Z,2.90
2017-08-24T14:34:14.462Z,3.00
2017-08-24T14:36:41.922Z,2.30
2017-08-24T14:39:09.235Z,2.77
2017-08-24T14:41:36.451Z,2.70
2017-08-24T14:44:03.674Z,2.80
2017-08-24T14:46:30.892Z,2.60
2017-08-24T14:48:58.102Z,2.30
2017-08-24T14:51:25.589Z,2.30
2017-08-24T14:53:52.796Z,2.70
2017-08-24T14:56:20.024Z,3.20
2017-08-24T14:58:47.224Z,2.43
2017-08-24T15:01:14.428Z,2.50
2017-08-24T15:03:42.592Z,2.20
2017-08-24T15:06:09.792Z,2.23
2017-08-24T15:08:37.026Z,2.00
2017-08-24T15:11:04.254Z,3.07
2017-08-24T15:13:33.184Z,10.87
2017-08-24T15:16:00.394Z,2.40
2017-08-24T15:18:27.597Z,2.47
2017-08-24T15:20:54.842Z,2.50
2017-08-24T15:23:22.066Z,2.27
2017-08-24T15:25:49.289Z,2.23
2017-08-24T15:28:16.497Z,2.40
2017-08-24T15:30:43.701Z,2.33
2017-08-24T15:33:10.923Z,2.23
2017-08-24T15:35:38.120Z,2.70
2017-08-24T15:38:05.328Z,2.40
2017-08-24T15:40:32.540Z,2.80
2017-08-24T15:42:59.741Z,2.77
2017-08-24T15:45:26.960Z,2.50
2017-08-24T15:47:54.156Z,2.90
2017-08-24T15:50:21.364Z,2.63
2017-08-24T15:52:48.560Z,2.40
2017-08-24T15:55:15.760Z,2.93
2017-08-24T15:57:42.979Z,2.27
2017-08-24T16:00:10.178Z,2.13
2017-08-24T16:02:38.317Z,2.30
2017-08-24T16:05:05.537Z,2.27
2017-08-24T16:07:32.732Z,2.67
2017-08-24T16:09:59.949Z,2.53
2017-08-24T16:12:27.144Z,2.60
2017-08-24T16:14:55.303Z,2.90
2017-08-24T16:17:22.505Z,8.93
2017-08-24T16:19:49.704Z,2.93
2017-08-24T16:22:16.921Z,2.97
2017-08-24T16:24:44.127Z,2.43
2017-08-24T16:27:11.330Z,3.00
2017-08-24T16:29:38.538Z,2.70
2017-08-24T16:32:05.746Z,2.90
2017-08-24T16:34:32.960Z,2.53
2017-08-24T16:37:00.168Z,3.50
2017-08-24T16:39:27.400Z,3.20
2017-08-24T16:41:54.625Z,3.20
2017-08-24T16:44:21.829Z,2.83
2017-08-24T16:46:49.028Z,3.33
2017-08-24T16:49:16.229Z,3.80
2017-08-24T16:51:43.436Z,3.40
2017-08-24T16:54:10.633Z,3.60
2017-08-24T16:56:37.643Z,3.63
2017-08-24T16:59:04.858Z,4.03
2017-08-24T17:01:34.029Z,3.47
2017-08-24T17:04:01.236Z,4.30
2017-08-24T17:06:28.443Z,4.73
2017-08-24T17:08:55.646Z,4.10
2017-08-24T17:11:22.847Z,3.93
2017-08-24T17:13:50.064Z,4.87
2017-08-24T17:16:17.272Z,5.57
2017-08-24T17:18:44.472Z,4.80
2017-08-24T17:21:11.678Z,4.00
2017-08-24T17:23:38.876Z,5.13
2017-08-24T17:26:06.101Z,4.17
2017-08-24T17:28:34.250Z,4.43
2017-08-24T17:31:01.449Z,4.80
2017-08-24T17:33:28.643Z,5.40
2017-08-24T17:35:57.233Z,5.20
2017-08-24T17:38:24.460Z,4.90
2017-08-24T17:40:52.609Z,4.73
2017-08-24T17:43:19.840Z,4.87
2017-08-24T17:45:47.069Z,5.20
2017-08-24T17:48:15.205Z,5.03
2017-08-24T17:50:42.449Z,5.40
2017-08-24T17:53:09.661Z,4.80
2017-08-24T17:55:36.861Z,5.00
2017-08-24T17:58:04.065Z,4.63
2017-08-24T18:00:31.261Z,4.83
2017-08-24T18:02:58.489Z,5.37
2017-08-24T18:05:25.689Z,5.90
2017-08-24T18:07:52.910Z,5.30
2017-08-24T18:10:20.226Z,6.93
2017-08-24T18:12:47.437Z,6.27
2017-08-24T18:15:14.657Z,5.70
2017-08-24T18:17:41.853Z,5.30
2017-08-24T18:20:09.056Z,5.77
2017-08-24T18:22:36.256Z,4.50
2017-08-24T18:25:03.458Z,4.40
2017-08-24T18:27:30.680Z,4.80
2017-08-24T18:29:58.608Z,3.47
2017-08-24T18:32:25.800Z,3.50
2017-08-24T18:34:53.272Z,3.47
2017-08-24T18:37:20.538Z,3.80
2017-08-24T18:39:47.585Z,2.90
2017-08-24T18:42:14.800Z,2.97
2017-08-24T18:44:42.013Z,2.80
2017-08-24T18:47:09.234Z,2.63
2017-08-24T18:49:36.441Z,5.20
2017-08-24T18:52:03.693Z,4.83
2017-08-24T18:54:30.955Z,4.87
2017-08-24T18:56:58.232Z,4.50
2017-08-24T18:59:25.441Z,4.57
2017-08-24T19:01:52.643Z,6.17
2017-08-24T19:04:19.981Z,5.33
2017-08-24T19:06:47.246Z,5.30
2017-08-24T19:09:14.460Z,4.80
2017-08-24T19:11:41.661Z,5.47
2017-08-24T19:14:09.802Z,5.10
2017-08-24T19:16:37.028Z,4.50
2017-08-24T19:19:04.228Z,4.30
2017-08-24T19:21:31.437Z,4.10
2017-08-24T19:23:59.571Z,4.20
2017-08-24T19:26:26.781Z,4.00
2017-08-24T19:28:54.015Z,4.27
2017-08-24T19:31:21.221Z,4.00
2017-08-24T19:33:48.561Z,3.73
2017-08-24T19:36:15.761Z,3.73
2017-08-24T19:38:42.964Z,3.90
2017-08-24T19:41:10.209Z,3.27
2017-08-24T19:43:37.417Z,3.70
2017-08-24T19:46:04.617Z,3.73
2017-08-24T19:48:31.845Z,3.33
2017-08-24T19:51:00.021Z,3.20
2017-08-24T19:53:27.286Z,3.50
2017-08-24T19:55:54.308Z,3.50
2017-08-24T19:58:21.513Z,3.50
2017-08-24T20:00:48.732Z,3.40
2017-08-24T20:03:15.936Z,3.70
2017-08-24T20:05:43.170Z,3.40
2017-08-24T20:08:10.377Z,3.70
2017-08-24T20:10:37.576Z,3.33
2017-08-24T20:13:04.796Z,3.13
2017-08-24T20:15:32.045Z,3.07
2017-08-24T20:17:59.278Z,2.90
2017-08-24T20:20:26.476Z,2.80
2017-08-24T20:22:53.681Z,3.60
2017-08-24T20:25:20.889Z,3.20
2017-08-24T20:27:48.101Z,2.90
2017-08-24T20:30:15.325Z,3.20
2017-08-24T20:32:42.541Z,3.10
2017-08-24T20:35:09.936Z,3.20
2017-08-24T20:37:37.158Z,3.10
2017-08-24T20:40:04.593Z,3.07
2017-08-24T20:42:31.808Z,2.60
2017-08-24T20:44:59.306Z,2.97
2017-08-24T20:47:26.706Z,2.90
2017-08-24T20:49:53.911Z,2.30
2017-08-24T20:52:21.116Z,2.70
2017-08-24T20:54:48.537Z,2.77
2017-08-24T20:57:15.752Z,2.40
2017-08-24T20:59:42.954Z,2.70
2017-08-24T21:02:10.158Z,2.83
2017-08-24T21:04:37.361Z,2.30
2017-08-24T21:07:04.589Z,2.67
2017-08-24T21:09:31.789Z,2.40
2017-08-24T21:11:58.988Z,2.60
2017-08-24T21:14:26.196Z,2.20
2017-08-24T21:16:53.404Z,2.60
2017-08-24T21:19:20.633Z,2.63
2017-08-24T21:21:48.780Z,3.00
2017-08-24T21:24:15.981Z,2.13
2017-08-24T21:26:43.200Z,2.50
2017-08-24T21:29:11.617Z,2.27
2017-08-24T21:31:38.847Z,2.57
2017-08-24T21:34:06.068Z,2.50
2017-08-24T21:36:34.242Z,2.33
2017-08-24T21:39:01.448Z,2.33
2017-08-24T21:41:28.651Z,2.63
2017-08-24T21:43:55.867Z,2.20
2017-08-24T21:46:23.070Z,2.70
2017-08-24T21:48:50.280Z,2.20
2017-08-24T21:51:17.480Z,2.50
2017-08-24T21:53:45.629Z,2.50
2017-08-24T21:56:12.844Z,2.00
2017-08-24T21:58:40.048Z,1.80
2017-08-24T22:01:07.279Z,2.00
2017-08-24T22:03:34.485Z,2.40
2017-08-24T22:06:01.680Z,2.17
2017-08-24T22:08:28.908Z,2.20
2017-08-24T22:10:56.108Z,2.57
2017-08-24T22:13:23.414Z,2.00
2017-08-24T22:15:51.348Z,2.23
2017-08-24T22:18:18.557Z,2.10
2017-08-24T22:20:46.864Z,2.80
2017-08-24T22:23:14.060Z,2.50
2017-08-24T22:25:41.292Z,1.90
2017-08-24T22:28:08.505Z,2.03
2017-08-24T22:30:35.721Z,2.00
2017-08-24T22:33:02.953Z,2.13
2017-08-24T22:35:30.157Z,2.30
2017-08-24T22:37:57.364Z,1.87
2017-08-24T22:40:24.589Z,2.37
2017-08-24T22:42:51.784Z,2.27
2017-08-24T22:45:18.996Z,2.20
2017-08-24T22:47:46.217Z,2.20
2017-08-24T22:50:13.446Z,2.40
2017-08-24T22:52:40.740Z,2.57
2017-08-24T22:55:13.488Z,2.40
2017-08-24T22:57:46.232Z,2.50
2017-08-24T23:00:19.308Z,2.33
2017-08-24T23:02:52.128Z,2.80
2017-08-24T23:05:19.361Z,2.30
2017-08-24T23:07:46.575Z,2.43
2017-08-24T23:10:13.588Z,2.80
2017-08-24T23:12:40.784Z,2.97
2017-08-24T23:15:07.993Z,2.87
2017-08-24T23:17:35.025Z,2.77
2017-08-24T23:20:02.238Z,2.97
2017-08-24T23:22:29.440Z,2.53
2017-08-24T23:24:57.572Z,3.00
2017-08-24T23:27:24.764Z,2.60
2017-08-24T23:29:52.272Z,3.05
2017-08-24T23:32:19.486Z,3.17
2017-08-24T23:34:46.703Z,2.80
2017-08-24T23:37:14.184Z,2.87
2017-08-24T23:39:41.479Z,2.42
2017-08-24T23:42:08.716Z,2.70
2017-08-24T23:44:36.214Z,2.60
2017-08-24T23:47:03.705Z,2.70
2017-08-24T23:49:30.925Z,2.40
2017-08-24T23:51:58.421Z,2.90
2017-08-24T23:54:25.912Z,2.78
2017-08-24T23:56:53.220Z,3.03
2017-08-24T23:59:20.244Z,3.20
